Date,TemperatureHighF,TemperatureAvgF,TemperatureLowF,DewpointHighF,DewpointAvgF,DewpointLowF,HumidityHigh,HumidityAvg,HumidityLow,PressureMaxIn,PressureMinIn,WindSpeedMaxMPH,WindSpeedAvgMPH,GustSpeedMaxMPH,PrecipitationSumIn
2013-3-1,41.5,36.4,30.9,34.3,26.8,21.9,98,70,52,29.79,29.58,6,2,8,0.00
2013-3-2,40.5,35.9,31.5,24.4,23.0,20.7,69,59,50,29.76,29.67,5,1,8,0.00
2013-3-3,41.9,34.4,31.3,28.8,24.3,20.5,86,67,51,29.73,29.61,6,1,6,0.00
2013-3-4,39.7,33.5,27.5,23.5,19.5,15.4,69,57,44,29.82,29.67,15,4,15,0.00
2013-3-5,45.9,35.7,29.5,27.9,21.8,17.6,77,57,43,30.12,29.82,6,2,8,0.00
2013-3-6,39.4,35.4,32.9,36.0,32.3,27.1,98,89,63,30.17,30.09,13,3,17,0.12
2013-3-7,34.5,32.0,30.0,32.2,29.2,25.7,98,89,72,30.14,30.06,12,3,15,0.05
2013-3-8,38.5,32.9,29.5,32.7,27.5,18.9,98,83,50,30.23,30.00,6,1,10,0.00
2013-3-9,51.4,37.7,27.5,24.8,20.0,15.3,79,50,31,30.44,30.20,6,2,9,1.11
2013-3-10,48.7,34.7,22.6,30.0,24.7,18.0,85,68,46,30.50,30.35,6,1,7,0.21
2013-3-11,51.4,41.2,34.3,37.8,31.9,28.0,90,71,46,30.38,30.20,9,3,12,0.00
2013-3-12,54.7,47.9,40.1,52.0,46.4,38.1,98,95,80,30.23,29.79,10,3,17,0.29
2013-3-13,49.8,41.9,34.3,48.0,28.3,15.4,98,62,37,29.88,29.79,9,2,11,0.04
2013-3-14,38.7,31.0,22.1,18.7,12.0,3.2,55,45,38,29.91,29.79,14,3,15,0.00
2013-3-15,41.5,30.5,19.6,22.8,11.5,2.7,66,45,31,29.97,29.67,9,3,14,0.00
2013-3-16,39.7,33.1,27.0,24.6,14.1,10.0,70,46,33,29.94,29.76,9,2,9,0.00
2013-3-17,38.8,30.4,23.4,15.8,8.4,1.9,54,40,30,30.35,29.91,10,2,13,0.00
2013-3-18,40.3,28.7,16.0,20.3,6.0,-2.9,69,39,29,30.53,30.29,6,2,7,0.00
2013-3-19,34.9,31.8,28.4,33.8,29.7,20.1,98,92,69,30.29,29.67,8,2,11,0.00
2013-3-20,41.5,31.1,23.5,26.4,19.1,13.6,93,64,41,29.88,29.76,11,2,13,0.17
2013-3-21,40.5,29.8,20.1,23.7,17.4,12.6,79,61,40,29.88,29.67,5,1,6,0.12
2013-3-22,42.1,32.3,25.9,20.5,15.4,11.5,71,50,39,29.82,29.67,9,2,12,0.09
2013-3-23,42.6,33.9,27.0,20.3,16.5,14.0,64,49,39,29.88,29.73,11,3,15,0.12
2013-3-24,46.8,36.7,29.3,22.5,18.2,13.8,60,47,37,29.88,29.79,7,2,10,0.00
2013-3-25,44.1,35.5,28.4,27.7,24.1,19.6,75,63,51,29.82,29.55,9,2,11,0.00
2013-3-26,47.8,39.2,34.5,26.4,21.7,14.7,65,50,37,29.85,29.61,6,2,8,0.00
2013-3-27,54.5,41.3,31.1,26.8,20.3,14.2,54,43,32,29.97,29.82,9,2,13,0.00
2013-3-28,50.2,42.2,35.8,32.5,28.3,24.6,85,59,39,30.12,29.94,6,2,11,0.00
2013-3-29,58.8,45.4,34.9,32.7,27.3,23.4,71,51,33,30.14,30.06,6,2,10,0.00
2013-3-30,58.1,45.6,35.8,27.1,22.3,15.6,63,42,25,30.20,30.06,10,2,12,0.00
2013-3-31,62.2,44.7,28.2,37.9,24.2,16.3,80,47,25,30.20,29.82,13,2,16,0.04